sensor_id;sensor_type;location;lat;lon;timestamp;temperature;humidity
30893;DHT22;17595;50.884;4.346;2023-04-06T00:00:31;11.50;99.90
30893;DHT22;17595;50.884;4.346;2023-04-06T00:02:57;11.50;99.90
30893;DHT22;17595;50.884;4.346;2023-04-06T00:05:22;11.40;99.90
30893;DHT22;17595;50.884;4.346;2023-04-06T00:07:48;11.40;99.90
30893;DHT22;17595;50.884;4.346;2023-04-06T00:10:16;11.40;99.90
30893;DHT22;17595;50.884;4.346;2023-04-06T00:12:43;11.40;99.90
30893;DHT22;17595;50.884;4.346;2023-04-06T00:15:09;11.50;99.90
30893;DHT22;17595;50.884;4.346;2023-04-06T00:17:35;11.40;99.90
30893;DHT22;17595;50.884;4.346;2023-04-06T00:20:01;11.40;99.90
30893;DHT22;17595;50.884;4.346;2023-04-06T00:22:26;11.40;99.90
30893;DHT22;17595;50.884;4.346;2023-04-06T00:24:52;11.40;99.90
30893;DHT22;17595;50.884;4.346;2023-04-06T00:27:18;11.40;99.90
30893;DHT22;17595;50.884;4.346;2023-04-06T00:29:44;11.40;99.90
30893;DHT22;17595;50.884;4.346;2023-04-06T00:32:10;11.40;99.90
30893;DHT22;17595;50.884;4.346;2023-04-06T00:34:35;11.50;99.90
30893;DHT22;17595;50.884;4.346;2023-04-06T00:37:01;11.40;99.90
30893;DHT22;17595;50.884;4.346;2023-04-06T00:39:27;11.40;99.90
30893;DHT22;17595;50.884;4.346;2023-04-06T00:41:52;11.40;99.90
30893;DHT22;17595;50.884;4.346;2023-04-06T00:44:19;11.50;99.90
30893;DHT22;17595;50.884;4.346;2023-04-06T00:46:45;11.50;99.90
30893;DHT22;17595;50.884;4.346;2023-04-06T00:49:11;11.50;99.90
30893;DHT22;17595;50.884;4.346;2023-04-06T00:51:37;11.50;99.90
30893;DHT22;17595;50.884;4.346;2023-04-06T00:54:03;11.50;99.90
30893;DHT22;17595;50.884;4.346;2023-04-06T00:56:29;11.50;99.90
30893;DHT22;17595;50.884;4.346;2023-04-06T00:58:54;11.40;99.90
30893;DHT22;17595;50.884;4.346;2023-04-06T01:01:21;11.40;99.90
30893;DHT22;17595;50.884;4.346;2023-04-06T01:03:46;11.40;99.90
30893;DHT22;17595;50.884;4.346;2023-04-06T01:06:15;11.40;99.90
30893;DHT22;17595;50.884;4.346;2023-04-06T01:08:41;11.40;99.90
30893;DHT22;17595;50.884;4.346;2023-04-06T01:11:07;11.40;99.90
30893;DHT22;17595;50.884;4.346;2023-04-06T01:13:33;11.40;99.90
30893;DHT22;17595;50.884;4.346;2023-04-06T01:15:58;11.40;99.90
30893;DHT22;17595;50.884;4.346;2023-04-06T01:18:28;11.40;99.90
30893;DHT22;17595;50.884;4.346;2023-04-06T01:20:54;11.40;99.90
30893;DHT22;17595;50.884;4.346;2023-04-06T01:23:20;11.40;99.90
30893;DHT22;17595;50.884;4.346;2023-04-06T01:25:45;11.40;99.90
30893;DHT22;17595;50.884;4.346;2023-04-06T01:28:11;11.40;99.90
30893;DHT22;17595;50.884;4.346;2023-04-06T01:30:36;11.40;99.90
30893;DHT22;17595;50.884;4.346;2023-04-06T01:33:02;11.40;99.90
30893;DHT22;17595;50.884;4.346;2023-04-06T01:35:29;11.30;99.90
30893;DHT22;17595;50.884;4.346;2023-04-06T01:37:55;11.30;99.90
30893;DHT22;17595;50.884;4.346;2023-04-06T01:40:21;11.30;99.90
30893;DHT22;17595;50.884;4.346;2023-04-06T01:42:47;11.30;99.90
30893;DHT22;17595;50.884;4.346;2023-04-06T01:45:12;11.30;99.90
30893;DHT22;17595;50.884;4.346;2023-04-06T01:47:38;11.20;99.90
30893;DHT22;17595;50.884;4.346;2023-04-06T01:50:04;11.20;99.90
30893;DHT22;17595;50.884;4.346;2023-04-06T01:52:32;11.20;99.90
30893;DHT22;17595;50.884;4.346;2023-04-06T01:54:58;11.20;99.90
30893;DHT22;17595;50.884;4.346;2023-04-06T01:57:24;11.20;99.90
30893;DHT22;17595;50.884;4.346;2023-04-06T01:59:51;11.20;99.90
30893;DHT22;17595;50.884;4.346;2023-04-06T02:02:16;11.10;99.90
30893;DHT22;17595;50.884;4.346;2023-04-06T02:04:42;11.10;99.90
30893;DHT22;17595;50.884;4.346;2023-04-06T02:07:08;11.10;99.90
30893;DHT22;17595;50.884;4.346;2023-04-06T02:09:33;11.10;99.90
30893;DHT22;17595;50.884;4.346;2023-04-06T02:11:59;11.10;99.90
30893;DHT22;17595;50.884;4.346;2023-04-06T02:14:26;11.10;99.90
30893;DHT22;17595;50.884;4.346;2023-04-06T02:16:52;11.10;99.90
30893;DHT22;17595;50.884;4.346;2023-04-06T02:19:18;11.00;99.90
30893;DHT22;17595;50.884;4.346;2023-04-06T02:21:43;11.10;99.90
30893;DHT22;17595;50.884;4.346;2023-04-06T02:24:09;11.10;99.90
30893;DHT22;17595;50.884;4.346;2023-04-06T02:26:35;11.00;99.90
30893;DHT22;17595;50.884;4.346;2023-04-06T02:29:01;11.00;99.90
30893;DHT22;17595;50.884;4.346;2023-04-06T02:31:27;11.00;99.90
30893;DHT22;17595;50.884;4.346;2023-04-06T02:33:53;11.00;99.90
30893;DHT22;17595;50.884;4.346;2023-04-06T02:36:19;11.00;99.90
30893;DHT22;17595;50.884;4.346;2023-04-06T02:38:45;11.00;99.90
30893;DHT22;17595;50.884;4.346;2023-04-06T02:41:10;11.00;99.90
30893;DHT22;17595;50.884;4.346;2023-04-06T02:43:36;11.00;99.90
30893;DHT22;17595;50.884;4.346;2023-04-06T02:46:02;11.00;99.90
30893;DHT22;17595;50.884;4.346;2023-04-06T02:48:27;11.00;99.90
30893;DHT22;17595;50.884;4.346;2023-04-06T02:50:53;10.90;99.90
30893;DHT22;17595;50.884;4.346;2023-04-06T02:53:18;10.90;99.90
30893;DHT22;17595;50.884;4.346;2023-04-06T02:55:44;11.00;99.90
30893;DHT22;17595;50.884;4.346;2023-04-06T02:58:10;10.90;99.90
30893;DHT22;17595;50.884;4.346;2023-04-06T03:00:36;10.90;99.90
30893;DHT22;17595;50.884;4.346;2023-04-06T03:03:02;11.00;99.90
30893;DHT22;17595;50.884;4.346;2023-04-06T03:05:28;10.90;99.90
30893;DHT22;17595;50.884;4.346;2023-04-06T03:07:53;10.90;99.90
30893;DHT22;17595;50.884;4.346;2023-04-06T03:10:19;10.80;99.90
30893;DHT22;17595;50.884;4.346;2023-04-06T03:12:44;10.80;99.90
30893;DHT22;17595;50.884;4.346;2023-04-06T03:15:10;10.80;99.90
30893;DHT22;17595;50.884;4.346;2023-04-06T03:17:36;10.80;99.90
30893;DHT22;17595;50.884;4.346;2023-04-06T03:20:03;10.80;99.90
30893;DHT22;17595;50.884;4.346;2023-04-06T03:22:29;10.80;99.90
30893;DHT22;17595;50.884;4.346;2023-04-06T03:24:55;10.70;99.90
30893;DHT22;17595;50.884;4.346;2023-04-06T03:27:20;10.70;99.90
30893;DHT22;17595;50.884;4.346;2023-04-06T03:29:46;10.70;99.90
30893;DHT22;17595;50.884;4.346;2023-04-06T03:32:12;10.70;99.90
30893;DHT22;17595;50.884;4.346;2023-04-06T03:34:38;10.70;99.90
30893;DHT22;17595;50.884;4.346;2023-04-06T03:37:04;10.70;99.90
30893;DHT22;17595;50.884;4.346;2023-04-06T03:39:30;10.70;99.90
30893;DHT22;17595;50.884;4.346;2023-04-06T03:41:55;10.60;99.90
30893;DHT22;17595;50.884;4.346;2023-04-06T03:44:21;10.60;99.90
30893;DHT22;17595;50.884;4.346;2023-04-06T03:46:47;10.70;99.90
30893;DHT22;17595;50.884;4.346;2023-04-06T03:49:12;10.70;99.90
30893;DHT22;17595;50.884;4.346;2023-04-06T03:51:38;10.70;99.90
30893;DHT22;17595;50.884;4.346;2023-04-06T03:54:04;10.70;99.90
30893;DHT22;17595;50.884;4.346;2023-04-06T03:56:30;10.70;99.90
30893;DHT22;17595;50.884;4.346;2023-04-06T03:58:55;10.70;99.90
30893;DHT22;17595;50.884;4.346;2023-04-06T04:01:21;10.70;99.90
30893;DHT22;17595;50.884;4.346;2023-04-06T04:03:47;10.70;99.90
30893;DHT22;17595;50.884;4.346;2023-04-06T04:06:12;10.70;99.90
30893;DHT22;17595;50.884;4.346;2023-04-06T04:08:38;10.70;99.90
30893;DHT22;17595;50.884;4.346;2023-04-06T04:11:04;10.80;99.90
30893;DHT22;17595;50.884;4.346;2023-04-06T04:13:29;10.80;99.90
30893;DHT22;17595;50.884;4.346;2023-04-06T04:15:55;10.80;99.90
30893;DHT22;17595;50.884;4.346;2023-04-06T04:18:21;10.80;99.90
30893;DHT22;17595;50.884;4.346;2023-04-06T04:20:47;10.90;99.90
30893;DHT22;17595;50.884;4.346;2023-04-06T04:23:13;10.90;99.90
30893;DHT22;17595;50.884;4.346;2023-04-06T04:25:38;10.80;99.90
30893;DHT22;17595;50.884;4.346;2023-04-06T04:28:04;10.80;99.90
30893;DHT22;17595;50.884;4.346;2023-04-06T04:30:29;10.90;99.90
30893;DHT22;17595;50.884;4.346;2023-04-06T04:32:55;10.90;99.90
30893;DHT22;17595;50.884;4.346;2023-04-06T04:35:21;10.90;99.90
30893;DHT22;17595;50.884;4.346;2023-04-06T04:37:46;10.80;99.90
30893;DHT22;17595;50.884;4.346;2023-04-06T04:40:12;10.80;99.90
30893;DHT22;17595;50.884;4.346;2023-04-06T04:42:38;10.70;99.90
30893;DHT22;17595;50.884;4.346;2023-04-06T04:45:04;10.60;99.90
30893;DHT22;17595;50.884;4.346;2023-04-06T04:47:29;10.70;99.90
30893;DHT22;17595;50.884;4.346;2023-04-06T04:49:55;10.70;99.90
30893;DHT22;17595;50.884;4.346;2023-04-06T04:52:20;10.80;99.90
30893;DHT22;17595;50.884;4.346;2023-04-06T04:54:46;10.90;99.90
30893;DHT22;17595;50.884;4.346;2023-04-06T04:57:13;10.80;99.90
30893;DHT22;17595;50.884;4.346;2023-04-06T04:59:38;10.90;99.90
30893;DHT22;17595;50.884;4.346;2023-04-06T05:02:04;10.90;99.90
30893;DHT22;17595;50.884;4.346;2023-04-06T05:04:30;11.00;99.90
30893;DHT22;17595;50.884;4.346;2023-04-06T05:07:06;11.00;99.90
30893;DHT22;17595;50.884;4.346;2023-04-06T05:09:32;10.90;99.90
30893;DHT22;17595;50.884;4.346;2023-04-06T05:11:59;11.00;99.90
30893;DHT22;17595;50.884;4.346;2023-04-06T05:14:25;11.00;99.90
30893;DHT22;17595;50.884;4.346;2023-04-06T05:16:51;11.00;99.90
30893;DHT22;17595;50.884;4.346;2023-04-06T05:19:17;11.00;99.90
30893;DHT22;17595;50.884;4.346;2023-04-06T05:21:42;11.00;99.90
30893;DHT22;17595;50.884;4.346;2023-04-06T05:24:08;11.00;99.90
30893;DHT22;17595;50.884;4.346;2023-04-06T05:26:34;11.10;99.90
30893;DHT22;17595;50.884;4.346;2023-04-06T05:29:00;11.10;99.90
30893;DHT22;17595;50.884;4.346;2023-04-06T05:31:26;11.10;99.90
30893;DHT22;17595;50.884;4.346;2023-04-06T05:33:52;11.10;99.90
30893;DHT22;17595;50.884;4.346;2023-04-06T05:36:18;11.10;99.90
30893;DHT22;17595;50.884;4.346;2023-04-06T05:38:44;11.10;99.90
30893;DHT22;17595;50.884;4.346;2023-04-06T05:41:09;11.20;99.90
30893;DHT22;17595;50.884;4.346;2023-04-06T05:43:36;11.10;99.90
30893;DHT22;17595;50.884;4.346;2023-04-06T05:46:02;11.10;99.90
30893;DHT22;17595;50.884;4.346;2023-04-06T05:48:27;11.10;99.90
30893;DHT22;17595;50.884;4.346;2023-04-06T05:50:54;11.20;99.90
30893;DHT22;17595;50.884;4.346;2023-04-06T05:53:20;11.20;99.90
30893;DHT22;17595;50.884;4.346;2023-04-06T05:55:46;11.20;99.90
30893;DHT22;17595;50.884;4.346;2023-04-06T05:58:12;11.20;99.90
30893;DHT22;17595;50.884;4.346;2023-04-06T06:00:38;11.20;99.90
30893;DHT22;17595;50.884;4.346;2023-04-06T06:03:04;11.30;99.90
30893;DHT22;17595;50.884;4.346;2023-04-06T06:05:31;11.30;99.90
30893;DHT22;17595;50.884;4.346;2023-04-06T06:07:56;11.20;99.90
30893;DHT22;17595;50.884;4.346;2023-04-06T06:10:22;11.00;99.90
30893;DHT22;17595;50.884;4.346;2023-04-06T06:12:48;11.00;99.90
30893;DHT22;17595;50.884;4.346;2023-04-06T06:15:14;11.10;99.90
30893;DHT22;17595;50.884;4.346;2023-04-06T06:17:40;11.10;99.90
30893;DHT22;17595;50.884;4.346;2023-04-06T06:20:07;11.10;99.90
30893;DHT22;17595;50.884;4.346;2023-04-06T06:22:33;11.30;99.90
30893;DHT22;17595;50.884;4.346;2023-04-06T06:25:00;11.20;99.90
30893;DHT22;17595;50.884;4.346;2023-04-06T06:27:25;11.20;99.90
30893;DHT22;17595;50.884;4.346;2023-04-06T06:29:51;11.30;99.90
30893;DHT22;17595;50.884;4.346;2023-04-06T06:32:17;11.40;99.90
30893;DHT22;17595;50.884;4.346;2023-04-06T06:34:43;11.40;99.90
30893;DHT22;17595;50.884;4.346;2023-04-06T06:37:09;11.40;99.90
30893;DHT22;17595;50.884;4.346;2023-04-06T06:39:34;11.30;99.90
30893;DHT22;17595;50.884;4.346;2023-04-06T06:42:00;11.40;99.90
30893;DHT22;17595;50.884;4.346;2023-04-06T06:44:27;11.50;99.90
30893;DHT22;17595;50.884;4.346;2023-04-06T06:46:53;11.40;99.90
30893;DHT22;17595;50.884;4.346;2023-04-06T06:49:19;11.30;99.90
30893;DHT22;17595;50.884;4.346;2023-04-06T06:51:45;11.30;99.90
30893;DHT22;17595;50.884;4.346;2023-04-06T06:54:12;11.30;99.90
30893;DHT22;17595;50.884;4.346;2023-04-06T06:56:38;11.40;99.90
30893;DHT22;17595;50.884;4.346;2023-04-06T06:59:05;11.50;99.90
30893;DHT22;17595;50.884;4.346;2023-04-06T07:01:32;11.60;99.90
30893;DHT22;17595;50.884;4.346;2023-04-06T07:03:58;11.60;99.90
30893;DHT22;17595;50.884;4.346;2023-04-06T07:06:24;11.70;99.90
30893;DHT22;17595;50.884;4.346;2023-04-06T07:08:50;11.80;99.90
30893;DHT22;17595;50.884;4.346;2023-04-06T07:11:16;11.80;99.90
30893;DHT22;17595;50.884;4.346;2023-04-06T07:13:42;11.80;99.90
30893;DHT22;17595;50.884;4.346;2023-04-06T07:16:08;11.90;99.90
30893;DHT22;17595;50.884;4.346;2023-04-06T07:18:33;11.90;99.90
30893;DHT22;17595;50.884;4.346;2023-04-06T07:20:59;11.90;99.90
30893;DHT22;17595;50.884;4.346;2023-04-06T07:23:25;11.90;99.90
30893;DHT22;17595;50.884;4.346;2023-04-06T07:25:51;11.80;99.90
30893;DHT22;17595;50.884;4.346;2023-04-06T07:28:19;11.80;99.90
30893;DHT22;17595;50.884;4.346;2023-04-06T07:30:44;11.80;99.90
30893;DHT22;17595;50.884;4.346;2023-04-06T07:33:10;12.00;99.90
30893;DHT22;17595;50.884;4.346;2023-04-06T07:35:36;11.90;99.90
30893;DHT22;17595;50.884;4.346;2023-04-06T07:38:02;11.90;99.90
30893;DHT22;17595;50.884;4.346;2023-04-06T07:40:28;12.00;99.90
30893;DHT22;17595;50.884;4.346;2023-04-06T07:42:54;12.10;99.90
30893;DHT22;17595;50.884;4.346;2023-04-06T07:45:20;12.00;99.90
30893;DHT22;17595;50.884;4.346;2023-04-06T07:47:46;12.00;99.90
30893;DHT22;17595;50.884;4.346;2023-04-06T07:50:12;12.00;99.90
30893;DHT22;17595;50.884;4.346;2023-04-06T07:52:38;12.00;99.90
30893;DHT22;17595;50.884;4.346;2023-04-06T07:55:04;12.10;99.90
30893;DHT22;17595;50.884;4.346;2023-04-06T07:57:33;12.10;99.90
30893;DHT22;17595;50.884;4.346;2023-04-06T07:59:59;12.10;99.90
30893;DHT22;17595;50.884;4.346;2023-04-06T08:02:25;12.10;99.90
30893;DHT22;17595;50.884;4.346;2023-04-06T08:04:51;12.10;99.90
30893;DHT22;17595;50.884;4.346;2023-04-06T08:07:17;12.20;99.90
30893;DHT22;17595;50.884;4.346;2023-04-06T08:09:42;12.10;99.90
30893;DHT22;17595;50.884;4.346;2023-04-06T08:12:08;12.10;99.90
30893;DHT22;17595;50.884;4.346;2023-04-06T08:14:39;12.30;99.90
30893;DHT22;17595;50.884;4.346;2023-04-06T08:17:08;12.20;99.90
30893;DHT22;17595;50.884;4.346;2023-04-06T08:19:34;12.30;99.90
30893;DHT22;17595;50.884;4.346;2023-04-06T08:22:00;12.20;99.90
30893;DHT22;17595;50.884;4.346;2023-04-06T08:24:26;12.20;99.90
30893;DHT22;17595;50.884;4.346;2023-04-06T08:26:52;12.30;99.90
30893;DHT22;17595;50.884;4.346;2023-04-06T08:29:18;12.10;99.90
30893;DHT22;17595;50.884;4.346;2023-04-06T08:31:44;12.10;99.90
30893;DHT22;17595;50.884;4.346;2023-04-06T08:34:10;12.30;99.90
30893;DHT22;17595;50.884;4.346;2023-04-06T08:36:38;12.20;99.90
30893;DHT22;17595;50.884;4.346;2023-04-06T08:39:07;12.20;99.90
30893;DHT22;17595;50.884;4.346;2023-04-06T08:41:34;12.20;99.90
30893;DHT22;17595;50.884;4.346;2023-04-06T08:44:01;12.20;99.90
30893;DHT22;17595;50.884;4.346;2023-04-06T08:46:29;12.20;99.90
30893;DHT22;17595;50.884;4.346;2023-04-06T08:49:00;12.30;99.90
30893;DHT22;17595;50.884;4.346;2023-04-06T08:51:28;12.10;99.90
30893;DHT22;17595;50.884;4.346;2023-04-06T08:53:55;12.30;99.90
30893;DHT22;17595;50.884;4.346;2023-04-06T08:56:22;12.40;99.90
30893;DHT22;17595;50.884;4.346;2023-04-06T08:58:48;12.50;99.90
30893;DHT22;17595;50.884;4.346;2023-04-06T09:01:17;12.50;99.90
30893;DHT22;17595;50.884;4.346;2023-04-06T09:03:44;12.50;99.90
30893;DHT22;17595;50.884;4.346;2023-04-06T09:06:11;12.60;99.90
30893;DHT22;17595;50.884;4.346;2023-04-06T09:08:40;12.60;99.90
30893;DHT22;17595;50.884;4.346;2023-04-06T09:11:06;12.80;99.90
30893;DHT22;17595;50.884;4.346;2023-04-06T09:13:45;12.90;99.90
30893;DHT22;17595;50.884;4.346;2023-04-06T09:16:11;12.90;99.90
30893;DHT22;17595;50.884;4.346;2023-04-06T09:18:36;13.00;99.90
30893;DHT22;17595;50.884;4.346;2023-04-06T09:21:05;13.20;99.90
30893;DHT22;17595;50.884;4.346;2023-04-06T09:23:34;13.20;99.90
30893;DHT22;17595;50.884;4.346;2023-04-06T09:26:14;13.30;99.90
30893;DHT22;17595;50.884;4.346;2023-04-06T09:31:26;13.50;99.90
30893;DHT22;17595;50.884;4.346;2023-04-06T09:33:52;13.50;99.90
30893;DHT22;17595;50.884;4.346;2023-04-06T09:36:19;13.50;99.90
30893;DHT22;17595;50.884;4.346;2023-04-06T09:38:55;13.50;99.90
30893;DHT22;17595;50.884;4.346;2023-04-06T09:41:26;13.50;99.90
30893;DHT22;17595;50.884;4.346;2023-04-06T09:44:01;13.50;99.90
30893;DHT22;17595;50.884;4.346;2023-04-06T09:46:27;13.30;99.90
30893;DHT22;17595;50.884;4.346;2023-04-06T09:48:56;13.10;99.90
30893;DHT22;17595;50.884;4.346;2023-04-06T09:51:23;13.20;99.90
30893;DHT22;17595;50.884;4.346;2023-04-06T09:53:52;13.20;99.90
30893;DHT22;17595;50.884;4.346;2023-04-06T09:56:24;13.20;99.90
30893;DHT22;17595;50.884;4.346;2023-04-06T09:58:56;13.10;99.90
30893;DHT22;17595;50.884;4.346;2023-04-06T10:01:26;13.10;99.90
30893;DHT22;17595;50.884;4.346;2023-04-06T10:06:42;13.20;99.90
30893;DHT22;17595;50.884;4.346;2023-04-06T10:09:09;13.20;99.90
30893;DHT22;17595;50.884;4.346;2023-04-06T10:11:35;13.20;99.90
30893;DHT22;17595;50.884;4.346;2023-04-06T10:14:01;13.30;99.90
30893;DHT22;17595;50.884;4.346;2023-04-06T10:16:28;13.30;99.90
30893;DHT22;17595;50.884;4.346;2023-04-06T10:19:00;13.30;99.90
30893;DHT22;17595;50.884;4.346;2023-04-06T10:21:29;13.40;99.90
30893;DHT22;17595;50.884;4.346;2023-04-06T10:24:01;13.40;99.90
30893;DHT22;17595;50.884;4.346;2023-04-06T10:26:27;13.20;99.90
30893;DHT22;17595;50.884;4.346;2023-04-06T10:28:54;13.00;99.90
30893;DHT22;17595;50.884;4.346;2023-04-06T10:31:27;13.10;99.90
30893;DHT22;17595;50.884;4.346;2023-04-06T10:33:55;13.30;99.90
30893;DHT22;17595;50.884;4.346;2023-04-06T10:36:34;13.40;99.90
30893;DHT22;17595;50.884;4.346;2023-04-06T10:39:02;13.40;99.90
30893;DHT22;17595;50.884;4.346;2023-04-06T10:41:45;13.60;99.90
30893;DHT22;17595;50.884;4.346;2023-04-06T10:44:24;13.70;99.90
30893;DHT22;17595;50.884;4.346;2023-04-06T10:46:57;13.70;99.90
30893;DHT22;17595;50.884;4.346;2023-04-06T10:49:24;13.50;99.90
30893;DHT22;17595;50.884;4.346;2023-04-06T10:51:54;13.40;99.90
30893;DHT22;17595;50.884;4.346;2023-04-06T10:54:26;13.40;99.90
30893;DHT22;17595;50.884;4.346;2023-04-06T10:56:52;13.50;99.90
30893;DHT22;17595;50.884;4.346;2023-04-06T10:59:21;13.50;99.90
30893;DHT22;17595;50.884;4.346;2023-04-06T11:01:48;13.60;99.90
30893;DHT22;17595;50.884;4.346;2023-04-06T11:04:17;13.70;99.90
30893;DHT22;17595;50.884;4.346;2023-04-06T11:06:47;13.60;99.90
30893;DHT22;17595;50.884;4.346;2023-04-06T11:09:26;13.50;99.90
30893;DHT22;17595;50.884;4.346;2023-04-06T11:11:53;13.30;99.90
30893;DHT22;17595;50.884;4.346;2023-04-06T11:14:18;13.20;99.90
30893;DHT22;17595;50.884;4.346;2023-04-06T11:16:47;13.30;99.90
30893;DHT22;17595;50.884;4.346;2023-04-06T11:19:16;13.10;99.90
30893;DHT22;17595;50.884;4.346;2023-04-06T11:21:44;13.30;99.90
30893;DHT22;17595;50.884;4.346;2023-04-06T11:24:15;13.50;99.90
30893;DHT22;17595;50.884;4.346;2023-04-06T11:26:49;13.50;99.90
30893;DHT22;17595;50.884;4.346;2023-04-06T11:29:18;13.60;99.90
30893;DHT22;17595;50.884;4.346;2023-04-06T11:31:49;13.70;99.90
30893;DHT22;17595;50.884;4.346;2023-04-06T11:34:21;13.60;99.90
30893;DHT22;17595;50.884;4.346;2023-04-06T11:36:48;13.70;99.90
30893;DHT22;17595;50.884;4.346;2023-04-06T11:39:20;13.80;99.90
30893;DHT22;17595;50.884;4.346;2023-04-06T11:41:49;13.90;99.90
30893;DHT22;17595;50.884;4.346;2023-04-06T11:44:26;13.80;99.90
30893;DHT22;17595;50.884;4.346;2023-04-06T11:46:53;13.70;99.90
30893;DHT22;17595;50.884;4.346;2023-04-06T11:49:19;13.80;99.90
30893;DHT22;17595;50.884;4.346;2023-04-06T11:51:46;13.90;99.90
30893;DHT22;17595;50.884;4.346;2023-04-06T11:54:11;14.00;99.90
30893;DHT22;17595;50.884;4.346;2023-04-06T11:56:38;14.00;99.90
30893;DHT22;17595;50.884;4.346;2023-04-06T11:59:04;14.00;99.90
30893;DHT22;17595;50.884;4.346;2023-04-06T12:01:29;14.00;99.90
30893;DHT22;17595;50.884;4.346;2023-04-06T12:03:55;13.90;99.90
30893;DHT22;17595;50.884;4.346;2023-04-06T12:06:21;13.80;99.90
30893;DHT22;17595;50.884;4.346;2023-04-06T12:08:47;13.90;99.90
30893;DHT22;17595;50.884;4.346;2023-04-06T12:11:12;13.70;99.90
30893;DHT22;17595;50.884;4.346;2023-04-06T12:13:38;13.80;99.90
30893;DHT22;17595;50.884;4.346;2023-04-06T12:16:04;13.60;99.90
30893;DHT22;17595;50.884;4.346;2023-04-06T12:18:31;13.80;99.90
30893;DHT22;17595;50.884;4.346;2023-04-06T12:20:56;14.00;99.90
30893;DHT22;17595;50.884;4.346;2023-04-06T12:23:22;13.90;99.90
30893;DHT22;17595;50.884;4.346;2023-04-06T12:25:47;14.10;99.90
30893;DHT22;17595;50.884;4.346;2023-04-06T12:28:13;14.30;99.90
30893;DHT22;17595;50.884;4.346;2023-04-06T12:30:39;14.40;99.90
30893;DHT22;17595;50.884;4.346;2023-04-06T12:33:06;14.30;99.90
30893;DHT22;17595;50.884;4.346;2023-04-06T12:35:35;14.20;99.90
30893;DHT22;17595;50.884;4.346;2023-04-06T12:38:02;14.30;99.90
30893;DHT22;17595;50.884;4.346;2023-04-06T12:40:27;14.20;99.90
30893;DHT22;17595;50.884;4.346;2023-04-06T12:42:53;14.10;99.90
30893;DHT22;17595;50.884;4.346;2023-04-06T12:45:19;14.20;99.90
30893;DHT22;17595;50.884;4.346;2023-04-06T12:47:44;14.10;99.90
30893;DHT22;17595;50.884;4.346;2023-04-06T12:50:10;14.00;99.90
30893;DHT22;17595;50.884;4.346;2023-04-06T12:52:36;13.80;99.90
30893;DHT22;17595;50.884;4.346;2023-04-06T12:55:02;13.70;99.90
30893;DHT22;17595;50.884;4.346;2023-04-06T12:57:28;13.50;99.90
30893;DHT22;17595;50.884;4.346;2023-04-06T12:59:54;13.50;99.90
30893;DHT22;17595;50.884;4.346;2023-04-06T13:02:20;13.50;99.90
30893;DHT22;17595;50.884;4.346;2023-04-06T13:04:46;13.60;99.90
30893;DHT22;17595;50.884;4.346;2023-04-06T13:07:12;13.20;99.90
30893;DHT22;17595;50.884;4.346;2023-04-06T13:09:37;12.90;99.90
30893;DHT22;17595;50.884;4.346;2023-04-06T13:12:03;12.90;99.90
30893;DHT22;17595;50.884;4.346;2023-04-06T13:14:29;12.90;99.90
30893;DHT22;17595;50.884;4.346;2023-04-06T13:16:54;12.80;99.90
30893;DHT22;17595;50.884;4.346;2023-04-06T13:19:20;12.80;99.90
30893;DHT22;17595;50.884;4.346;2023-04-06T13:21:46;12.60;99.90
30893;DHT22;17595;50.884;4.346;2023-04-06T13:24:12;12.70;99.90
30893;DHT22;17595;50.884;4.346;2023-04-06T13:26:38;12.70;99.90
30893;DHT22;17595;50.884;4.346;2023-04-06T13:29:03;12.60;99.90
30893;DHT22;17595;50.884;4.346;2023-04-06T13:31:30;12.90;99.90
30893;DHT22;17595;50.884;4.346;2023-04-06T13:33:55;13.10;99.90
30893;DHT22;17595;50.884;4.346;2023-04-06T13:36:21;13.20;99.90
30893;DHT22;17595;50.884;4.346;2023-04-06T13:38:47;13.20;99.90
30893;DHT22;17595;50.884;4.346;2023-04-06T13:41:23;13.30;99.90
30893;DHT22;17595;50.884;4.346;2023-04-06T13:43:50;13.30;99.90
30893;DHT22;17595;50.884;4.346;2023-04-06T13:46:16;13.20;99.90
30893;DHT22;17595;50.884;4.346;2023-04-06T13:48:42;13.30;99.90
30893;DHT22;17595;50.884;4.346;2023-04-06T13:51:12;13.30;99.90
30893;DHT22;17595;50.884;4.346;2023-04-06T13:53:38;13.10;99.90
30893;DHT22;17595;50.884;4.346;2023-04-06T13:56:05;13.10;99.90
30893;DHT22;17595;50.884;4.346;2023-04-06T13:58:31;13.00;99.90
30893;DHT22;17595;50.884;4.346;2023-04-06T14:01:07;13.10;99.90
30893;DHT22;17595;50.884;4.346;2023-04-06T14:03:35;13.20;99.90
30893;DHT22;17595;50.884;4.346;2023-04-06T14:06:00;13.20;99.90
30893;DHT22;17595;50.884;4.346;2023-04-06T14:08:26;13.20;99.90
30893;DHT22;17595;50.884;4.346;2023-04-06T14:10:52;13.10;99.90
30893;DHT22;17595;50.884;4.346;2023-04-06T14:13:17;13.10;99.90
30893;DHT22;17595;50.884;4.346;2023-04-06T14:15:44;13.30;99.90
30893;DHT22;17595;50.884;4.346;2023-04-06T14:18:09;13.30;99.90
30893;DHT22;17595;50.884;4.346;2023-04-06T14:20:35;13.40;99.90
30893;DHT22;17595;50.884;4.346;2023-04-06T14:23:02;13.40;99.90
30893;DHT22;17595;50.884;4.346;2023-04-06T14:25:28;13.20;99.90
30893;DHT22;17595;50.884;4.346;2023-04-06T14:27:53;13.30;99.90
30893;DHT22;17595;50.884;4.346;2023-04-06T14:30:19;13.30;99.90
30893;DHT22;17595;50.884;4.346;2023-04-06T14:32:45;13.20;99.90
30893;DHT22;17595;50.884;4.346;2023-04-06T14:35:10;13.10;99.90
30893;DHT22;17595;50.884;4.346;2023-04-06T14:37:36;13.10;99.90
30893;DHT22;17595;50.884;4.346;2023-04-06T14:40:02;13.20;99.90
30893;DHT22;17595;50.884;4.346;2023-04-06T14:42:28;13.40;99.90
30893;DHT22;17595;50.884;4.346;2023-04-06T14:44:54;13.30;99.90
30893;DHT22;17595;50.884;4.346;2023-04-06T14:47:20;13.20;99.90
30893;DHT22;17595;50.884;4.346;2023-04-06T14:49:50;13.30;99.90
30893;DHT22;17595;50.884;4.346;2023-04-06T14:52:16;13.30;99.90
30893;DHT22;17595;50.884;4.346;2023-04-06T14:54:42;13.50;99.90
30893;DHT22;17595;50.884;4.346;2023-04-06T14:57:07;13.60;99.90
30893;DHT22;17595;50.884;4.346;2023-04-06T14:59:33;13.90;99.90
30893;DHT22;17595;50.884;4.346;2023-04-06T15:01:59;14.10;99.90
30893;DHT22;17595;50.884;4.346;2023-04-06T15:04:28;14.00;99.90
30893;DHT22;17595;50.884;4.346;2023-04-06T15:06:54;13.90;99.90
30893;DHT22;17595;50.884;4.346;2023-04-06T15:09:19;13.90;99.90
30893;DHT22;17595;50.884;4.346;2023-04-06T15:11:45;13.90;99.90
30893;DHT22;17595;50.884;4.346;2023-04-06T15:14:10;13.80;99.90
30893;DHT22;17595;50.884;4.346;2023-04-06T15:16:36;13.90;99.90
30893;DHT22;17595;50.884;4.346;2023-04-06T15:19:02;14.00;99.90
30893;DHT22;17595;50.884;4.346;2023-04-06T15:21:27;14.20;99.90
30893;DHT22;17595;50.884;4.346;2023-04-06T15:23:53;14.40;99.90
30893;DHT22;17595;50.884;4.346;2023-04-06T15:26:20;14.60;99.90
30893;DHT22;17595;50.884;4.346;2023-04-06T15:28:46;14.50;99.90
30893;DHT22;17595;50.884;4.346;2023-04-06T15:31:18;14.50;99.90